createdAt,value
2022-11-13T00:02:46.679Z,28.50
2022-11-13T00:05:36.918Z,28.50
2022-11-13T00:08:26.880Z,27.30
2022-11-13T00:11:20.157Z,28.20
2022-11-13T00:14:09.752Z,27.90
2022-11-13T00:16:59.468Z,27.80
2022-11-13T00:19:48.839Z,29.50
2022-11-13T00:22:38.245Z,28.40
2022-11-13T00:25:28.239Z,27.90
2022-11-13T00:28:17.766Z,27.90
2022-11-13T00:31:08.814Z,27.50
2022-11-13T00:34:25.966Z,27.10
2022-11-13T00:37:08.704Z,30.10
2022-11-13T00:39:59.760Z,28.70
2022-11-13T00:42:51.416Z,28.70
2022-11-13T00:45:47.210Z,28.20
2022-11-13T00:48:37.758Z,28.90
2022-11-13T00:51:28.070Z,31.60
2022-11-13T00:54:20.816Z,30.50
2022-11-13T00:57:10.801Z,29.70
2022-11-13T01:00:01.137Z,30.80
2022-11-13T01:02:51.527Z,29.90
2022-11-13T01:05:42.030Z,29.80
2022-11-13T01:08:31.789Z,28.70
2022-11-13T01:11:24.708Z,30.40
2022-11-13T01:14:14.197Z,30.90
2022-11-13T01:17:03.893Z,31.20
2022-11-13T01:19:53.469Z,30.90
2022-11-13T01:22:43.214Z,30.00
2022-11-13T01:25:34.093Z,29.00
2022-11-13T01:28:23.411Z,31.20
2022-11-13T01:31:17.219Z,31.90
2022-11-13T01:34:14.625Z,30.70
2022-11-13T01:37:04.571Z,30.00
2022-11-13T01:39:54.443Z,30.20
2022-11-13T01:42:43.997Z,30.70
2022-11-13T01:46:02.891Z,30.40
2022-11-13T01:48:59.063Z,32.00
2022-11-13T01:51:53.878Z,29.30
2022-11-13T01:54:48.322Z,28.30
2022-11-13T01:57:38.454Z,29.40
2022-11-13T02:00:28.227Z,30.00
2022-11-13T02:03:18.267Z,29.90
2022-11-13T02:06:13.390Z,31.90
2022-11-13T02:09:03.768Z,29.20
2022-11-13T02:11:54.472Z,29.30
2022-11-13T02:14:47.552Z,30.90
2022-11-13T02:17:43.294Z,32.30
2022-11-13T02:20:42.329Z,28.90
2022-11-13T02:23:41.202Z,28.60
2022-11-13T02:26:32.824Z,30.30
2022-11-13T02:29:22.777Z,26.70
2022-11-13T02:32:12.680Z,28.20
2022-11-13T02:35:02.378Z,28.80
2022-11-13T02:37:51.952Z,28.50
2022-11-13T02:40:41.413Z,28.00
2022-11-13T02:43:30.773Z,28.80
2022-11-13T02:46:20.203Z,28.90
2022-11-13T02:49:09.950Z,29.70
2022-11-13T02:51:59.740Z,28.60
2022-11-13T02:54:49.085Z,28.60
2022-11-13T02:57:39.373Z,27.80
2022-11-13T03:00:29.362Z,30.20
2022-11-13T03:03:41.015Z,29.60
2022-11-13T03:06:29.114Z,29.50
2022-11-13T03:09:18.468Z,28.10
2022-11-13T03:12:09.615Z,26.90
2022-11-13T03:18:06.888Z,27.40
2022-11-13T03:20:56.738Z,26.10
2022-11-13T03:23:48.368Z,27.70
2022-11-13T03:26:41.326Z,27.10
2022-11-13T03:29:31.255Z,26.20
2022-11-13T03:32:21.673Z,26.30
2022-11-13T03:35:12.543Z,27.00
2022-11-13T03:38:02.693Z,27.10
2022-11-13T03:40:53.129Z,24.90
2022-11-13T03:43:44.096Z,27.00
2022-11-13T03:46:33.539Z,28.00
2022-11-13T03:49:22.809Z,25.80
2022-11-13T03:52:12.560Z,28.30
2022-11-13T03:55:03.395Z,27.90
2022-11-13T03:57:53.715Z,27.40
2022-11-13T04:00:44.576Z,26.50
2022-11-13T04:03:34.583Z,28.50
2022-11-13T04:06:24.020Z,27.60
2022-11-13T04:09:13.712Z,28.40
2022-11-13T04:12:03.589Z,28.10
2022-11-13T04:14:53.483Z,27.70
2022-11-13T04:17:43.168Z,30.00
2022-11-13T04:20:33.588Z,28.60
2022-11-13T04:23:23.113Z,27.10
2022-11-13T04:26:12.547Z,27.70
2022-11-13T04:29:01.738Z,29.30
2022-11-13T04:31:51.338Z,29.30
2022-11-13T04:34:41.345Z,29.50
2022-11-13T04:37:31.414Z,29.30
2022-11-13T04:40:21.398Z,28.20
2022-11-13T04:43:11.393Z,30.30
2022-11-13T04:46:02.764Z,29.30
2022-11-13T04:48:54.899Z,31.80
2022-11-13T04:51:44.923Z,30.10
2022-11-13T04:54:34.370Z,29.30
2022-11-13T04:57:23.947Z,31.00
2022-11-13T05:00:15.868Z,29.10
2022-11-13T05:03:05.537Z,30.80
2022-11-13T05:05:55.346Z,28.70
2022-11-13T05:08:45.235Z,27.30
2022-11-13T05:11:34.857Z,29.40
2022-11-13T05:14:24.611Z,27.50
2022-11-13T05:17:14.917Z,27.90
2022-11-13T05:20:05.128Z,27.30
2022-11-13T05:22:54.556Z,25.40
2022-11-13T05:25:44.651Z,27.20
2022-11-13T05:28:35.110Z,26.80
2022-11-13T05:31:27.754Z,26.40
2022-11-13T05:34:19.367Z,28.20
2022-11-13T05:37:08.857Z,29.80
2022-11-13T05:39:58.287Z,27.80
2022-11-13T05:42:47.698Z,25.50
2022-11-13T05:45:37.300Z,26.00
2022-11-13T05:48:27.416Z,28.40
2022-11-13T05:51:21.626Z,27.60
2022-11-13T05:54:12.879Z,28.90
2022-11-13T05:57:06.027Z,28.70
2022-11-13T05:59:55.697Z,28.80
2022-11-13T06:02:45.389Z,29.20
2022-11-13T06:05:37.417Z,29.20
2022-11-13T06:08:27.692Z,31.10
2022-11-13T06:11:20.049Z,31.50
2022-11-13T06:14:09.532Z,30.50
2022-11-13T06:16:59.794Z,31.40
2022-11-13T06:19:49.439Z,31.10
2022-11-13T06:22:39.440Z,31.40
2022-11-13T06:25:30.999Z,30.60
2022-11-13T06:28:23.041Z,29.50
2022-11-13T06:31:18.244Z,30.90
2022-11-13T06:34:08.561Z,29.70
2022-11-13T06:36:59.701Z,32.20
2022-11-13T06:39:51.079Z,29.40
2022-11-13T06:42:40.903Z,29.00
2022-11-13T06:45:30.485Z,30.40
2022-11-13T06:48:19.914Z,29.80
2022-11-13T06:51:14.554Z,30.20
2022-11-13T06:54:04.156Z,27.20
2022-11-13T06:56:53.550Z,30.00
2022-11-13T06:59:43.819Z,29.50
2022-11-13T07:02:33.220Z,25.90
2022-11-13T07:05:23.011Z,24.80
2022-11-13T07:08:14.989Z,26.10
2022-11-13T07:11:04.357Z,23.10
2022-11-13T07:13:53.625Z,23.90
2022-11-13T07:17:07.959Z,22.60
2022-11-13T07:19:55.208Z,21.80
2022-11-13T07:22:46.918Z,20.50
2022-11-13T07:25:58.560Z,23.70
2022-11-13T07:29:06.556Z,22.70
2022-11-13T07:31:59.221Z,22.20
2022-11-13T07:34:51.776Z,23.10
2022-11-13T07:37:42.417Z,20.20
2022-11-13T07:40:32.043Z,21.10
2022-11-13T07:43:21.878Z,20.00
2022-11-13T07:46:11.910Z,20.20
2022-11-13T07:49:01.369Z,21.90
2022-11-13T07:51:51.329Z,20.40
2022-11-13T07:54:43.579Z,19.90
2022-11-13T07:57:32.932Z,20.60
2022-11-13T08:00:22.815Z,20.40
2022-11-13T08:03:37.287Z,20.20
2022-11-13T08:06:32.352Z,18.80
2022-11-13T08:09:45.146Z,19.40
2022-11-13T08:12:35.849Z,21.00
2022-11-13T08:15:26.167Z,21.60
2022-11-13T08:18:15.992Z,20.90
2022-11-13T08:21:18.466Z,19.30
2022-11-13T08:24:08.708Z,18.30
2022-11-13T08:26:58.442Z,17.40
2022-11-13T08:29:51.034Z,17.60
2022-11-13T08:32:43.848Z,17.00
2022-11-13T08:35:33.769Z,16.10
2022-11-13T08:38:23.716Z,14.70
2022-11-13T08:41:14.100Z,16.30
2022-11-13T08:44:06.401Z,15.40
2022-11-13T08:46:56.847Z,15.00
2022-11-13T08:49:46.237Z,14.80
2022-11-13T08:52:36.563Z,13.50
2022-11-13T08:55:32.430Z,15.30
2022-11-13T08:58:24.967Z,16.00
2022-11-13T09:01:18.764Z,17.40
2022-11-13T09:04:08.898Z,18.80
2022-11-13T09:06:58.946Z,18.60
2022-11-13T09:09:48.745Z,16.90
2022-11-13T09:12:44.890Z,15.50
2022-11-13T09:15:35.510Z,14.60
2022-11-13T09:18:25.316Z,14.70
2022-11-13T09:21:14.727Z,14.00
2022-11-13T09:24:06.625Z,17.30
2022-11-13T09:26:56.385Z,22.30
2022-11-13T09:29:46.103Z,25.40
2022-11-13T09:32:35.617Z,19.90
2022-11-13T09:35:35.302Z,17.60
2022-11-13T09:38:25.421Z,16.40
2022-11-13T09:41:21.574Z,14.40
2022-11-13T09:44:21.792Z,14.00
2022-11-13T09:47:21.082Z,12.90
2022-11-13T09:50:20.771Z,14.30
2022-11-13T09:53:14.636Z,14.20
2022-11-13T09:56:17.516Z,13.90
2022-11-13T09:59:22.569Z,13.10
2022-11-13T10:02:23.480Z,11.50
2022-11-13T10:05:24.866Z,11.50
2022-11-13T10:08:18.493Z,13.10
2022-11-13T10:11:17.277Z,13.80
2022-11-13T10:14:18.211Z,13.30
2022-11-13T10:17:16.466Z,13.00
2022-11-13T10:20:13.441Z,14.20
2022-11-13T10:23:10.124Z,13.90
2022-11-13T10:26:12.689Z,12.70
2022-11-13T10:29:14.014Z,13.70
2022-11-13T10:32:20.501Z,13.50
2022-11-13T10:35:29.169Z,13.70
2022-11-13T10:38:25.740Z,13.40
2022-11-13T10:41:17.227Z,14.00
2022-11-13T10:44:24.618Z,14.00
2022-11-13T10:47:31.244Z,12.80
2022-11-13T10:50:30.687Z,12.30
2022-11-13T10:53:20.960Z,12.10
2022-11-13T10:56:26.904Z,12.30
2022-11-13T10:59:20.588Z,12.90
2022-11-13T11:02:20.289Z,12.60
2022-11-13T11:05:20.297Z,12.10
2022-11-13T11:08:12.635Z,12.70
2022-11-13T11:11:25.771Z,12.40
2022-11-13T11:14:21.817Z,12.10
2022-11-13T11:17:18.024Z,12.40
2022-11-13T11:20:19.006Z,13.50
2022-11-13T11:23:18.435Z,13.00
2022-11-13T11:26:15.720Z,13.50
2022-11-13T11:29:20.088Z,11.70
2022-11-13T11:32:18.060Z,14.40
2022-11-13T11:35:15.115Z,14.50
2022-11-13T11:38:10.446Z,13.80
2022-11-13T11:41:15.994Z,13.00
2022-11-13T11:44:16.917Z,13.30
2022-11-13T11:47:12.737Z,12.40
2022-11-13T11:50:03.208Z,12.50
2022-11-13T11:53:02.688Z,12.80
2022-11-13T11:56:11.931Z,13.00
2022-11-13T11:59:32.439Z,13.70
2022-11-13T12:02:54.722Z,14.70
2022-11-13T12:05:54.741Z,15.10
2022-11-13T12:08:53.609Z,13.40
2022-11-13T12:11:51.532Z,13.90
2022-11-13T12:14:50.707Z,12.80
2022-11-13T12:17:51.821Z,12.20
2022-11-13T12:20:51.736Z,11.50
2022-11-13T12:24:01.712Z,11.10
2022-11-13T12:27:10.090Z,11.80
2022-11-13T12:30:15.857Z,12.60
2022-11-13T12:33:24.699Z,14.40
2022-11-13T12:36:16.178Z,14.30
2022-11-13T12:39:15.004Z,16.30
2022-11-13T12:42:14.910Z,16.30
2022-11-13T12:45:15.431Z,16.20
2022-11-13T12:48:22.912Z,15.80
2022-11-13T12:51:22.566Z,15.60
2022-11-13T12:54:35.948Z,16.70
2022-11-13T12:57:49.524Z,15.90
2022-11-13T13:00:42.545Z,14.60
2022-11-13T13:04:19.167Z,14.50
2022-11-13T13:07:25.427Z,14.90
2022-11-13T13:10:24.969Z,13.80
2022-11-13T13:13:42.227Z,14.10
2022-11-13T13:16:32.866Z,13.20
2022-11-13T13:19:30.500Z,14.40
2022-11-13T13:22:34.239Z,14.10
2022-11-13T13:25:30.070Z,13.90
2022-11-13T13:31:39.806Z,13.40
2022-11-13T13:34:39.702Z,13.20
2022-11-13T13:37:38.824Z,13.90
2022-11-13T13:40:41.130Z,13.90
2022-11-13T13:43:45.033Z,13.80
2022-11-13T13:46:42.392Z,14.40
2022-11-13T13:49:40.520Z,15.00
2022-11-13T13:52:39.835Z,14.10
2022-11-13T13:55:33.439Z,13.10
2022-11-13T13:58:29.952Z,14.20
2022-11-13T14:01:29.945Z,13.60
2022-11-13T14:04:26.624Z,14.70
2022-11-13T14:07:29.288Z,14.20
2022-11-13T14:10:22.956Z,14.20
2022-11-13T14:13:16.631Z,13.00
2022-11-13T14:16:11.776Z,13.90
2022-11-13T14:19:08.344Z,13.90
2022-11-13T14:22:02.361Z,12.80
2022-11-13T14:24:55.512Z,12.70
2022-11-13T14:27:59.275Z,13.10
2022-11-13T14:30:58.877Z,13.10
2022-11-13T14:33:52.088Z,13.50
2022-11-13T14:36:42.976Z,12.50
2022-11-13T14:39:35.760Z,13.10
2022-11-13T14:42:37.700Z,13.80
2022-11-13T14:45:29.999Z,13.20
2022-11-13T14:48:27.495Z,13.50
2022-11-13T14:51:26.411Z,14.60
2022-11-13T14:54:53.260Z,14.40
2022-11-13T14:57:50.473Z,14.20
2022-11-13T15:00:45.046Z,15.70
2022-11-13T15:03:36.161Z,13.70
2022-11-13T15:06:28.758Z,16.70
2022-11-13T15:09:19.945Z,16.80
2022-11-13T15:12:13.866Z,14.40
2022-11-13T15:15:05.224Z,14.50
2022-11-13T15:18:01.086Z,14.40
2022-11-13T15:20:56.681Z,13.60
2022-11-13T15:23:46.911Z,14.70
2022-11-13T15:26:41.797Z,13.50
2022-11-13T15:29:32.191Z,15.20
2022-11-13T15:32:25.463Z,16.20
2022-11-13T15:35:18.145Z,16.20
2022-11-13T15:38:09.491Z,17.40
2022-11-13T15:41:04.520Z,18.50
2022-11-13T15:43:58.337Z,18.30
2022-11-13T15:46:48.513Z,18.30
2022-11-13T15:49:56.640Z,17.50
2022-11-13T15:52:57.170Z,19.20
2022-11-13T15:55:50.405Z,17.80
2022-11-13T15:58:43.483Z,18.50
2022-11-13T16:01:39.520Z,18.30
2022-11-13T16:04:44.055Z,18.70
2022-11-13T16:07:44.724Z,17.50
2022-11-13T16:10:38.149Z,22.60
2022-11-13T16:13:30.261Z,27.10
2022-11-13T16:16:25.464Z,21.60
2022-11-13T16:19:23.812Z,19.80
2022-11-13T16:22:21.268Z,20.20
2022-11-13T16:25:14.168Z,20.80
2022-11-13T16:28:04.923Z,21.80
2022-11-13T16:30:56.537Z,21.80
2022-11-13T16:33:53.342Z,21.80
2022-11-13T16:36:44.867Z,22.90
2022-11-13T16:39:35.085Z,23.20
2022-11-13T16:42:30.903Z,22.40
2022-11-13T16:45:23.290Z,20.60
2022-11-13T16:48:15.971Z,20.10
2022-11-13T16:51:06.324Z,20.00
2022-11-13T16:53:59.301Z,19.80
2022-11-13T16:56:54.008Z,18.70
2022-11-13T16:59:58.626Z,19.40
2022-11-13T17:02:52.755Z,20.10
2022-11-13T17:05:46.291Z,17.70
2022-11-13T17:08:37.237Z,19.30
2022-11-13T17:11:28.643Z,18.40
2022-11-13T17:14:21.447Z,15.90
2022-11-13T17:17:15.364Z,18.30
2022-11-13T17:20:05.710Z,17.90
2022-11-13T17:22:59.082Z,16.10
2022-11-13T17:26:06.426Z,16.50
2022-11-13T17:28:58.546Z,18.70
2022-11-13T17:31:49.263Z,19.00
2022-11-13T17:34:41.482Z,18.40
2022-11-13T17:37:32.065Z,15.80
2022-11-13T17:40:28.528Z,15.90
2022-11-13T17:43:18.587Z,15.40
2022-11-13T17:46:11.998Z,15.00
2022-11-13T17:49:01.568Z,17.90
2022-11-13T17:51:55.811Z,18.30
2022-11-13T17:54:51.328Z,17.00
2022-11-13T18:00:30.414Z,18.10
2022-11-13T18:03:35.753Z,21.60
2022-11-13T18:06:26.586Z,21.80
2022-11-13T18:09:16.459Z,22.20
2022-11-13T18:12:06.534Z,20.50
2022-11-13T18:14:58.327Z,21.30
2022-11-13T18:17:48.323Z,23.70
2022-11-13T18:20:41.852Z,22.20
2022-11-13T18:23:33.267Z,22.80
2022-11-13T18:26:32.422Z,31.60
2022-11-13T18:29:57.590Z,23.70
2022-11-13T18:32:49.452Z,22.00
2022-11-13T18:35:45.737Z,22.70
2022-11-13T18:38:36.302Z,22.50
2022-11-13T18:41:26.500Z,25.70
2022-11-13T18:44:16.054Z,21.40
2022-11-13T18:47:09.020Z,24.60
2022-11-13T18:50:00.690Z,22.30
2022-11-13T18:52:52.389Z,20.60
2022-11-13T18:55:42.536Z,23.00
2022-11-13T18:58:38.100Z,23.60
2022-11-13T19:01:30.486Z,18.80
2022-11-13T19:04:23.608Z,20.40
2022-11-13T19:07:14.436Z,20.70
2022-11-13T19:10:05.552Z,22.90
2022-11-13T19:12:55.600Z,21.50
2022-11-13T19:15:45.612Z,20.60
2022-11-13T19:18:35.751Z,20.50
2022-11-13T19:21:28.908Z,22.00
2022-11-13T19:24:18.947Z,22.20
2022-11-13T19:27:10.988Z,22.00
2022-11-13T19:30:04.054Z,21.50
2022-11-13T19:32:54.069Z,22.50
2022-11-13T19:35:44.086Z,21.00
2022-11-13T19:38:34.638Z,22.00
2022-11-13T19:41:25.640Z,21.30
2022-11-13T19:44:16.095Z,23.00
2022-11-13T19:47:06.634Z,23.40
2022-11-13T19:49:56.547Z,21.50
2022-11-13T19:52:46.848Z,22.80
2022-11-13T19:55:36.836Z,22.10
2022-11-13T19:58:26.950Z,22.60
2022-11-13T20:01:19.645Z,22.70
2022-11-13T20:04:12.968Z,19.50
2022-11-13T20:07:04.908Z,20.20
2022-11-13T20:09:55.236Z,20.80
2022-11-13T20:12:46.033Z,20.40
2022-11-13T20:15:35.687Z,19.90
2022-11-13T20:18:26.188Z,20.40
2022-11-13T20:21:16.846Z,21.20
2022-11-13T20:24:07.667Z,20.60
2022-11-13T20:26:57.825Z,20.20
2022-11-13T20:29:47.752Z,19.70
2022-11-13T20:32:41.538Z,20.20
2022-11-13T20:35:31.608Z,32.00
2022-11-13T20:38:22.344Z,22.10
2022-11-13T20:41:13.916Z,21.10
2022-11-13T20:44:04.360Z,18.50
2022-11-13T20:46:54.154Z,18.20
2022-11-13T20:49:44.038Z,16.70
2022-11-13T20:52:34.402Z,15.00
2022-11-13T20:55:27.790Z,15.30
2022-11-13T20:58:17.403Z,15.10
2022-11-13T21:01:10.005Z,15.30
2022-11-13T21:04:00.263Z,16.50
2022-11-13T21:06:53.370Z,14.90
2022-11-13T21:09:48.711Z,16.60
2022-11-13T21:12:39.936Z,16.10
2022-11-13T21:15:30.429Z,16.40
2022-11-13T21:18:21.033Z,17.20
2022-11-13T21:21:14.427Z,16.10
2022-11-13T21:24:04.583Z,17.40
2022-11-13T21:26:55.118Z,18.40
2022-11-13T21:29:44.973Z,19.80
2022-11-13T21:32:34.609Z,19.30
2022-11-13T21:35:25.474Z,18.90
2022-11-13T21:38:15.776Z,15.90
2022-11-13T21:41:25.282Z,19.20
2022-11-13T21:44:15.617Z,17.60
2022-11-13T21:47:06.082Z,19.10
2022-11-13T21:49:55.910Z,19.20
2022-11-13T21:52:45.918Z,18.90
2022-11-13T21:55:35.729Z,17.70
2022-11-13T21:58:34.852Z,14.70
2022-11-13T22:01:33.740Z,18.50
2022-11-13T22:04:41.905Z,16.70
2022-11-13T22:07:32.382Z,15.90
2022-11-13T22:10:22.123Z,16.60
2022-11-13T22:13:16.907Z,16.80
2022-11-13T22:16:08.237Z,15.10
2022-11-13T22:19:03.737Z,13.70
2022-11-13T22:21:55.268Z,13.60
2022-11-13T22:24:44.875Z,14.80
2022-11-13T22:27:34.384Z,14.60
2022-11-13T22:30:23.946Z,13.20
2022-11-13T22:33:13.744Z,10.80
2022-11-13T22:36:09.100Z,13.10
2022-11-13T22:39:00.031Z,13.10
2022-11-13T22:41:49.815Z,10.30
2022-11-13T22:44:55.013Z,11.70
2022-11-13T22:47:45.315Z,10.50
2022-11-13T22:50:37.552Z,10.90
2022-11-13T22:53:27.085Z,11.10
2022-11-13T22:56:17.757Z,10.80
2022-11-13T22:59:09.597Z,12.00
2022-11-13T23:01:59.066Z,10.40
2022-11-13T23:04:48.685Z,12.30
2022-11-13T23:07:38.034Z,12.20
2022-11-13T23:10:28.554Z,12.00
2022-11-13T23:13:18.161Z,10.10
2022-11-13T23:16:08.050Z,10.20
2022-11-13T23:18:58.849Z,12.10
2022-11-13T23:21:49.317Z,10.70
2022-11-13T23:24:39.154Z,13.40
2022-11-13T23:27:28.832Z,11.40
2022-11-13T23:30:18.844Z,11.70
2022-11-13T23:33:08.382Z,11.90
2022-11-13T23:35:57.803Z,12.10
2022-11-13T23:38:47.716Z,13.60
2022-11-13T23:41:37.050Z,14.10
2022-11-13T23:44:27.719Z,13.30
2022-11-13T23:47:17.264Z,14.50
2022-11-13T23:50:07.729Z,14.60
2022-11-13T23:52:57.548Z,13.80
2022-11-13T23:55:46.891Z,14.80
2022-11-13T23:58:36.712Z,13.90
